Overview Statistics Trail Chart Weather Telemetry Raw packets
 

This is the latest recevied weather packets stored in our database for station/object K7OWW-2. If no packets are shown the sender has not sent any weather packets the latest 10 day(s).

<< 21 22 23 24 25 26 27 >>
Time Temp. Humidity Pressure Rain* Wind** Luminosity Snow
1788203933 25° C 22% 1012.1 hPa 0 mm - - -
1788203333 25° C 24% 1012.3 hPa 0 mm - - -
1788202733 24.44° C 24% 1012.5 hPa 0 mm - - -
1788202133 23.89° C 25% 1012.6 hPa 0 mm - - -
1788201533 22.78° C 27% 1012.8 hPa 0 mm - - -
1788200933 22.22° C 27% 1013 hPa 0 mm - - -
1788200333 21.11° C 30% 1013.1 hPa 0 mm - - -
1788199733 20° C 30% 1013.3 hPa 0 mm - - -
1788199133 19.44° C 32% 1013.5 hPa 0 mm - - -
1788198533 19.44° C 33% 1013.7 hPa 0 mm - - -
1788197933 18.89° C 35% 1013.9 hPa 0 mm - - -
1788197333 17.78° C 36% 1014 hPa 0 mm - - -
1788196733 16.67° C 39% 1014.1 hPa 0 mm - - -
1788196150 16.11° C 43% 1014.3 hPa 0 mm - - -
1788195533 15.56° C 43% 1014.6 hPa 0 mm - - -
1788194933 15° C 45% 1014.8 hPa 0 mm - - -
1788194333 13.89° C 50% 1014.8 hPa 0 mm - - -
1788193733 12.78° C 51% 1015 hPa 0 mm - - -
1788193133 12.22° C 60% 1015.2 hPa 0 mm - - -
1788192533 10° C 63% 1015.3 hPa 0 mm - - -
1788191933 7.78° C 73% 1015.3 hPa 0 mm - - -
1788191333 6.11° C 77% 1015.4 hPa 0 mm - - -
1788190733 5° C 79% 1015.6 hPa 0 mm - - -
1788190133 3.89° C 81% 1015.6 hPa 0 mm - - -
1788189533 2.78° C 82% 1015.7 hPa 0 mm - - -

* Rain latest hour (hover to see other rain measurements)
** Current wind speed in m/s (hover to see current wind gust speed)